Historique des mesures à Cassis (13260), France
Quotidien Résumé Juin 23, 2022 Unités:  Métrique/US    US   Métrique
Quotidien Hebdomadaire Mensuel Annuel
  Maximum: Minimum: Moyenne:
Température: 57.7 °F /  14.3 °C 48 °F /  8.9 °C 52.9 °F /  11.6 °C
Point de rosée: 49.5 °F /  9.7 °C 37.6 °F /  3.1 °C 43.2 °F /  6.2 °C
Humidité: 81% 62% 70%
Vitesse du vent: 27.7mph /  44.6km/h - 8.3mph /  13.3km/h
Rafales: 34.9mph /  56.2km/h - -
Vent- - West
Pression: 29.9 in /  1014.0 hPa 29.7 in /  1005.0 hPa -
Précipitations: 0 in /  0.0 mm    
Historical Graphs
 
 
Mesures pour : Juin 23, 2022
Heure Temperature Point de rosée Pression Vent Vitesse du vent Rafales Humidité Pluie (par heure)
00:10 49.8 °F /  9.9 °C 38.8 °F /  3.8 °C 29.7in /  1006.0hPa NNW 27.7mph /  44.6km/h 29.3mph /  47.2km/h 66% 0in /  0.0mm
01:10 50.5 °F /  10.3 °C 37.9 °F /  3.3 °C 29.7in /  1005.9hPa WNW 17.5mph /  28.1km/h 24.4mph /  39.2km/h 62% 0in /  0.0mm
02:10 50.2 °F /  10.1 °C 37.6 °F /  3.1 °C 29.7in /  1006.0hPa NNW 3.8mph /  6.1km/h 14.1mph /  22.7km/h 62% 0in /  0.0mm
03:10 48.9 °F /  9.4 °C 37.9 °F /  3.3 °C 29.7in /  1006.1hPa Calm   5.8mph /  9.4km/h 66% 0in /  0.0mm
04:10 48.7 °F /  9.3 °C 38.3 °F /  3.5 °C 29.7in /  1005.4hPa Calm     67% 0in /  0.0mm
05:10 48 °F /  8.9 °C 37.6 °F /  3.1 °C 29.7in /  1005.0hPa Calm     67% 0in /  0.0mm
06:10 49.1 °F /  9.5 °C 38.1 °F /  3.4 °C 29.7in /  1005.5hPa WNW 5.8mph /  9.4km/h 13.2mph /  21.2km/h 66% 0in /  0.0mm
07:10 49.1 °F /  9.5 °C 39.4 °F /  4.1 °C 29.7in /  1005.5hPa NW 2.5mph /  4km/h 6.7mph /  10.8km/h 69% 0in /  0.0mm
08:10 49.3 °F /  9.6 °C 39.2 °F /  4 °C 29.7in /  1005.4hPa NW 6mph /  9.7km/h 8.1mph /  13km/h 68% 0in /  0.0mm
09:10 50.4 °F /  10.2 °C 40.6 °F /  4.8 °C 29.7in /  1006.4hPa NW 0.7mph /  1.1km/h 4.7mph /  7.6km/h 69% 0in /  0.0mm
10:10 51.3 °F /  10.7 °C 41.9 °F /  5.5 °C 29.7in /  1007.2hPa Calm   3.8mph /  6.1km/h 70% 0in /  0.0mm
11:10 53.4 °F /  11.9 °C 43.2 °F /  6.2 °C 29.8in /  1007.5hPa NE 3.4mph /  5.4km/h 7.1mph /  11.5km/h 68% 0in /  0.0mm
12:10 54.7 °F /  12.6 °C 45.5 °F /  7.5 °C 29.8in /  1007.4hPa Calm     71% 0in /  0.0mm
13:10 55.8 °F /  13.2 °C 47.8 °F /  8.8 °C 29.8in /  1007.9hPa NW 8.9mph /  14.4km/h 8.9mph /  14.4km/h 75% 0in /  0.0mm
14:10 56.3 °F /  13.5 °C 48.7 °F /  9.3 °C 29.8in /  1007.9hPa NNW 10.7mph /  17.3km/h 13.2mph /  21.2km/h 76% 0in /  0.0mm
15:10 57.7 °F /  14.3 °C 49.5 °F /  9.7 °C 29.8in /  1007.8hPa WNW 4.7mph /  7.6km/h 10.1mph /  16.2km/h 74% 0in /  0.0mm
16:10 55.9 °F /  13.3 °C 49.1 °F /  9.5 °C 29.8in /  1008.3hPa NW 10.1mph /  16.2km/h 15.7mph /  25.2km/h 78% 0in /  0.0mm
17:10 55.2 °F /  12.9 °C 49.5 °F /  9.7 °C 29.8in /  1009.2hPa WNW 3.4mph /  5.4km/h 10.5mph /  16.9km/h 81% 0in /  0.0mm
18:10 55.2 °F /  12.9 °C 49.1 °F /  9.5 °C 29.8in /  1009.9hPa North 4mph /  6.5km/h 17.9mph /  28.8km/h 80% 0in /  0.0mm
19:10 55.6 °F /  13.1 °C 48.4 °F /  9.1 °C 29.8in /  1010.6hPa North 16.5mph /  26.6km/h 29.5mph /  47.5km/h 77% 0in /  0.0mm
20:10 56.3 °F /  13.5 °C 46.8 °F /  8.2 °C 29.9in /  1011.8hPa NNW 19.4mph /  31.3km/h 29.5mph /  47.5km/h 70% 0in /  0.0mm
21:10 55.9 °F /  13.3 °C 45.5 °F /  7.5 °C 29.9in /  1012.6hPa WNW 14.3mph /  23km/h 23.5mph /  37.8km/h 68% 0in /  0.0mm
22:10 55.6 °F /  13.1 °C 43.5 °F /  6.4 °C 29.9in /  1013.3hPa NW 14.3mph /  23km/h 26.4mph /  42.5km/h 64% 0in /  0.0mm
23:10 55.6 °F /  13.1 °C 43.2 °F /  6.2 °C 29.9in /  1014.0hPa NNW 25mph /  40.3km/h 34.9mph /  56.2km/h 63% 0in /  0.0mm
Observations météo à CASSIS
WU-History script by Weather Underground - 2 mb